sensor_id;sensor_type;location;lat;lon;timestamp;pressure;altitude;pressure_sealevel;temperature;humidity
15604;BME280;7902;49.042;9.092;2023-04-10T00:00:23;99727.22;;;11.86;49.30
15604;BME280;7902;49.042;9.092;2023-04-10T00:02:49;99725.66;;;11.84;49.60
15604;BME280;7902;49.042;9.092;2023-04-10T00:05:15;99721.53;;;11.80;49.33
15604;BME280;7902;49.042;9.092;2023-04-10T00:07:42;99718.69;;;11.83;49.69
15604;BME280;7902;49.042;9.092;2023-04-10T00:10:08;99715.44;;;11.79;48.87
15604;BME280;7902;49.042;9.092;2023-04-10T00:12:35;99712.19;;;11.76;48.89
15604;BME280;7902;49.042;9.092;2023-04-10T00:15:02;99725.53;;;11.73;49.66
15604;BME280;7902;49.042;9.092;2023-04-10T00:17:29;99716.44;;;11.64;49.00
15604;BME280;7902;49.042;9.092;2023-04-10T00:19:55;99716.44;;;11.64;49.76
15604;BME280;7902;49.042;9.092;2023-04-10T00:22:20;99710.97;;;11.67;49.67
15604;BME280;7902;49.042;9.092;2023-04-10T00:24:46;99714.63;;;11.52;50.00
15604;BME280;7902;49.042;9.092;2023-04-10T00:27:12;99717.44;;;11.49;49.80
15604;BME280;7902;49.042;9.092;2023-04-10T00:29:38;99716.63;;;11.49;49.50
15604;BME280;7902;49.042;9.092;2023-04-10T00:32:04;99709.22;;;11.41;50.57
15604;BME280;7902;49.042;9.092;2023-04-10T00:34:30;99693.06;;;11.47;50.09
15604;BME280;7902;49.042;9.092;2023-04-10T00:36:57;99707.34;;;11.43;50.57
15604;BME280;7902;49.042;9.092;2023-04-10T00:39:23;99700.19;;;11.45;50.20
15604;BME280;7902;49.042;9.092;2023-04-10T00:41:49;99704.38;;;11.35;49.69
15604;BME280;7902;49.042;9.092;2023-04-10T00:44:15;99700.25;;;11.31;49.55
15604;BME280;7902;49.042;9.092;2023-04-10T00:46:42;99698.59;;;11.30;49.69
15604;BME280;7902;49.042;9.092;2023-04-10T00:49:08;99699.72;;;11.26;50.38
15604;BME280;7902;49.042;9.092;2023-04-10T00:51:35;99695.59;;;11.22;50.35
15604;BME280;7902;49.042;9.092;2023-04-10T00:54:02;99693.97;;;11.33;49.79
15604;BME280;7902;49.042;9.092;2023-04-10T00:56:29;99694.97;;;11.18;50.56
15604;BME280;7902;49.042;9.092;2023-04-10T00:58:58;99692.66;;;11.14;50.91
15604;BME280;7902;49.042;9.092;2023-04-10T01:01:24;99689.25;;;11.12;50.91
15604;BME280;7902;49.042;9.092;2023-04-10T01:03:51;99688.16;;;11.16;49.63
15604;BME280;7902;49.042;9.092;2023-04-10T01:08:59;99690.41;;;11.08;50.03
15604;BME280;7902;49.042;9.092;2023-04-10T01:14:09;99698.19;;;11.09;50.83
15604;BME280;7902;49.042;9.092;2023-04-10T01:16:46;99696.91;;;11.02;50.54
15604;BME280;7902;49.042;9.092;2023-04-10T01:20:00;99705.09;;;10.97;51.26
15604;BME280;7902;49.042;9.092;2023-04-10T01:22:33;99695.88;;;11.05;49.98
15604;BME280;7902;49.042;9.092;2023-04-10T01:30:46;99695.88;;;11.05;50.20
15604;BME280;7902;49.042;9.092;2023-04-10T01:33:15;99692.91;;;10.96;50.62
15604;BME280;7902;49.042;9.092;2023-04-10T01:35:47;99697.31;;;10.96;50.73
15604;BME280;7902;49.042;9.092;2023-04-10T01:38:19;99691.22;;;10.95;51.31
15604;BME280;7902;49.042;9.092;2023-04-10T01:40:49;99686.06;;;10.94;50.27
15604;BME280;7902;49.042;9.092;2023-04-10T01:43:17;99689.81;;;10.90;50.64
15604;BME280;7902;49.042;9.092;2023-04-10T01:45:45;99689.72;;;10.91;50.91
15604;BME280;7902;49.042;9.092;2023-04-10T01:48:13;99693.50;;;10.87;50.78
15604;BME280;7902;49.042;9.092;2023-04-10T01:50:41;99692.53;;;10.88;50.74
15604;BME280;7902;49.042;9.092;2023-04-10T01:53:07;99688.25;;;10.87;50.66
15604;BME280;7902;49.042;9.092;2023-04-10T01:55:35;99683.94;;;10.86;50.97
15604;BME280;7902;49.042;9.092;2023-04-10T01:58:01;99684.78;;;10.87;50.32
15604;BME280;7902;49.042;9.092;2023-04-10T02:00:27;99687.50;;;10.85;50.68
15604;BME280;7902;49.042;9.092;2023-04-10T02:02:53;99687.88;;;10.79;51.05
15604;BME280;7902;49.042;9.092;2023-04-10T02:05:19;99689.00;;;10.75;51.04
15604;BME280;7902;49.042;9.092;2023-04-10T02:08:10;99687.16;;;10.77;50.80
15604;BME280;7902;49.042;9.092;2023-04-10T02:10:43;99695.97;;;10.76;50.84
15604;BME280;7902;49.042;9.092;2023-04-10T02:13:13;99683.59;;;10.64;51.02
15604;BME280;7902;49.042;9.092;2023-04-10T02:15:42;99688.59;;;10.69;51.11
15604;BME280;7902;49.042;9.092;2023-04-10T02:18:14;99693.16;;;10.65;50.86
15604;BME280;7902;49.042;9.092;2023-04-10T02:20:41;99688.50;;;10.56;51.14
15604;BME280;7902;49.042;9.092;2023-04-10T02:23:07;99694.41;;;10.45;51.35
15604;BME280;7902;49.042;9.092;2023-04-10T02:25:34;99681.53;;;10.55;50.98
15604;BME280;7902;49.042;9.092;2023-04-10T02:28:04;99685.13;;;10.54;51.33
15604;BME280;7902;49.042;9.092;2023-04-10T02:30:30;99697.72;;;10.49;51.08
15604;BME280;7902;49.042;9.092;2023-04-10T02:32:57;99696.41;;;10.42;51.44
15604;BME280;7902;49.042;9.092;2023-04-10T02:35:24;99691.91;;;10.44;51.53
15604;BME280;7902;49.042;9.092;2023-04-10T02:37:50;99694.63;;;10.42;51.61
15604;BME280;7902;49.042;9.092;2023-04-10T02:40:16;99680.00;;;10.38;51.43
15604;BME280;7902;49.042;9.092;2023-04-10T02:42:41;99684.47;;;10.36;51.70
15604;BME280;7902;49.042;9.092;2023-04-10T02:45:08;99694.25;;;10.34;51.49
15604;BME280;7902;49.042;9.092;2023-04-10T02:47:34;99698.09;;;10.29;51.72
15604;BME280;7902;49.042;9.092;2023-04-10T02:50:00;99705.97;;;10.29;51.78
15604;BME280;7902;49.042;9.092;2023-04-10T02:52:26;99703.06;;;10.33;51.20
15604;BME280;7902;49.042;9.092;2023-04-10T02:54:52;99703.72;;;10.23;52.19
15604;BME280;7902;49.042;9.092;2023-04-10T02:57:18;99693.75;;;10.13;51.81
15604;BME280;7902;49.042;9.092;2023-04-10T02:59:44;99685.81;;;10.29;51.63
15604;BME280;7902;49.042;9.092;2023-04-10T03:02:10;99694.91;;;10.24;52.26
15604;BME280;7902;49.042;9.092;2023-04-10T03:04:36;99695.47;;;10.29;51.60
15604;BME280;7902;49.042;9.092;2023-04-10T03:07:02;99692.00;;;10.28;51.87
15604;BME280;7902;49.042;9.092;2023-04-10T03:09:28;99688.38;;;10.31;51.52
15604;BME280;7902;49.042;9.092;2023-04-10T03:11:53;99689.00;;;10.20;52.38
15604;BME280;7902;49.042;9.092;2023-04-10T03:14:19;99681.47;;;10.14;51.53
15604;BME280;7902;49.042;9.092;2023-04-10T03:16:45;99680.53;;;10.01;52.63
15604;BME280;7902;49.042;9.092;2023-04-10T03:19:13;99682.69;;;9.94;52.74
15604;BME280;7902;49.042;9.092;2023-04-10T03:21:39;99678.19;;;9.96;51.98
15604;BME280;7902;49.042;9.092;2023-04-10T03:24:05;99670.97;;;9.86;52.87
15604;BME280;7902;49.042;9.092;2023-04-10T03:26:31;99676.88;;;9.89;52.03
15604;BME280;7902;49.042;9.092;2023-04-10T03:28:57;99676.31;;;9.84;52.07
15604;BME280;7902;49.042;9.092;2023-04-10T03:31:22;99670.59;;;9.78;52.23
15604;BME280;7902;49.042;9.092;2023-04-10T03:33:48;99669.19;;;9.72;52.15
15604;BME280;7902;49.042;9.092;2023-04-10T03:36:14;99666.00;;;9.67;52.71
15604;BME280;7902;49.042;9.092;2023-04-10T03:38:41;99668.34;;;9.72;52.47
15604;BME280;7902;49.042;9.092;2023-04-10T03:41:07;99665.78;;;9.70;52.39
15604;BME280;7902;49.042;9.092;2023-04-10T03:43:33;99663.75;;;9.75;52.95
15604;BME280;7902;49.042;9.092;2023-04-10T03:45:59;99664.13;;;9.69;52.93
15604;BME280;7902;49.042;9.092;2023-04-10T03:48:26;99662.78;;;9.62;52.96
15604;BME280;7902;49.042;9.092;2023-04-10T03:50:56;99661.88;;;9.63;52.92
15604;BME280;7902;49.042;9.092;2023-04-10T03:53:22;99659.53;;;9.58;52.87
15604;BME280;7902;49.042;9.092;2023-04-10T03:55:48;99656.97;;;9.57;52.50
15604;BME280;7902;49.042;9.092;2023-04-10T03:58:14;99662.41;;;9.54;53.14
15604;BME280;7902;49.042;9.092;2023-04-10T04:00:40;99655.28;;;9.56;52.51
15604;BME280;7902;49.042;9.092;2023-04-10T04:03:06;99653.06;;;9.50;53.73
15604;BME280;7902;49.042;9.092;2023-04-10T04:05:31;99647.41;;;9.56;52.96
15604;BME280;7902;49.042;9.092;2023-04-10T04:07:57;99650.81;;;9.58;52.75
15604;BME280;7902;49.042;9.092;2023-04-10T04:10:23;99641.75;;;9.63;52.80
15604;BME280;7902;49.042;9.092;2023-04-10T04:12:49;99639.13;;;9.63;52.49
15604;BME280;7902;49.042;9.092;2023-04-10T04:15:15;99635.56;;;9.64;52.98
15604;BME280;7902;49.042;9.092;2023-04-10T04:17:41;99632.66;;;9.69;53.04
15604;BME280;7902;49.042;9.092;2023-04-10T04:20:08;99633.03;;;9.63;52.72
15604;BME280;7902;49.042;9.092;2023-04-10T04:22:34;99630.97;;;9.68;53.21
15604;BME280;7902;49.042;9.092;2023-04-10T04:24:59;99634.53;;;9.67;53.28
15604;BME280;7902;49.042;9.092;2023-04-10T04:27:25;99631.53;;;9.73;52.42
15604;BME280;7902;49.042;9.092;2023-04-10T04:29:51;99632.19;;;9.77;52.55
15604;BME280;7902;49.042;9.092;2023-04-10T04:32:17;99633.88;;;9.78;53.18
15604;BME280;7902;49.042;9.092;2023-04-10T04:34:43;99643.06;;;9.85;52.42
15604;BME280;7902;49.042;9.092;2023-04-10T04:37:09;99644.38;;;9.92;52.14
15604;BME280;7902;49.042;9.092;2023-04-10T04:39:35;99645.41;;;9.89;52.22
15604;BME280;7902;49.042;9.092;2023-04-10T04:42:01;99636.59;;;10.04;52.38
15604;BME280;7902;49.042;9.092;2023-04-10T04:44:26;99634.91;;;10.03;52.37
15604;BME280;7902;49.042;9.092;2023-04-10T04:46:53;99640.53;;;10.11;52.34
15604;BME280;7902;49.042;9.092;2023-04-10T04:49:19;99648.50;;;10.10;52.41
15604;BME280;7902;49.042;9.092;2023-04-10T04:51:45;99642.06;;;10.16;51.74
15604;BME280;7902;49.042;9.092;2023-04-10T04:54:11;99648.81;;;10.20;52.19
15604;BME280;7902;49.042;9.092;2023-04-10T04:56:37;99653.75;;;10.24;51.50
15604;BME280;7902;49.042;9.092;2023-04-10T04:59:03;99657.03;;;10.28;51.68
15604;BME280;7902;49.042;9.092;2023-04-10T05:01:29;99655.72;;;10.35;51.47
15604;BME280;7902;49.042;9.092;2023-04-10T05:03:55;99655.16;;;10.30;51.24
15604;BME280;7902;49.042;9.092;2023-04-10T05:06:21;99650.66;;;10.32;51.80
15604;BME280;7902;49.042;9.092;2023-04-10T05:08:47;99655.34;;;10.27;51.71
15604;BME280;7902;49.042;9.092;2023-04-10T05:11:12;99651.69;;;10.29;51.48
15604;BME280;7902;49.042;9.092;2023-04-10T05:13:38;99661.91;;;10.34;52.09
15604;BME280;7902;49.042;9.092;2023-04-10T05:16:04;99664.91;;;10.28;51.56
15604;BME280;7902;49.042;9.092;2023-04-10T05:18:30;99662.84;;;10.33;51.87
15604;BME280;7902;49.042;9.092;2023-04-10T05:20:56;99664.25;;;10.38;50.96
15604;BME280;7902;49.042;9.092;2023-04-10T05:23:22;99651.41;;;10.34;52.01
15604;BME280;7902;49.042;9.092;2023-04-10T05:25:48;99660.03;;;10.36;51.39
15604;BME280;7902;49.042;9.092;2023-04-10T05:28:14;99657.41;;;10.36;51.40
15604;BME280;7902;49.042;9.092;2023-04-10T05:30:40;99651.97;;;10.39;51.67
15604;BME280;7902;49.042;9.092;2023-04-10T05:33:06;99653.38;;;10.44;51.35
15604;BME280;7902;49.042;9.092;2023-04-10T05:35:32;99655.69;;;10.49;51.65
15604;BME280;7902;49.042;9.092;2023-04-10T05:37:58;99655.22;;;10.42;52.41
15604;BME280;7902;49.042;9.092;2023-04-10T05:40:25;99646.41;;;10.43;51.91
15604;BME280;7902;49.042;9.092;2023-04-10T05:42:51;99652.31;;;10.47;51.37
15604;BME280;7902;49.042;9.092;2023-04-10T05:45:17;99656.53;;;10.49;51.60
15604;BME280;7902;49.042;9.092;2023-04-10T05:47:43;99655.59;;;10.50;51.66
15604;BME280;7902;49.042;9.092;2023-04-10T05:50:09;99667.69;;;10.53;52.13
15604;BME280;7902;49.042;9.092;2023-04-10T05:52:35;99664.97;;;10.54;52.10
15604;BME280;7902;49.042;9.092;2023-04-10T05:55:01;99673.28;;;10.61;52.15
15604;BME280;7902;49.042;9.092;2023-04-10T05:57:28;99670.03;;;10.57;51.57
15604;BME280;7902;49.042;9.092;2023-04-10T05:59:54;99661.84;;;10.62;51.95
15604;BME280;7902;49.042;9.092;2023-04-10T06:02:20;99661.00;;;10.62;51.91
15604;BME280;7902;49.042;9.092;2023-04-10T06:04:46;99666.72;;;10.68;52.12
15604;BME280;7902;49.042;9.092;2023-04-10T06:07:12;99663.69;;;10.74;52.08
15604;BME280;7902;49.042;9.092;2023-04-10T06:09:38;99664.44;;;10.76;50.97
15604;BME280;7902;49.042;9.092;2023-04-10T06:12:04;99664.53;;;10.75;51.03
15604;BME280;7902;49.042;9.092;2023-04-10T06:14:30;99661.72;;;10.78;51.07
15604;BME280;7902;49.042;9.092;2023-04-10T06:16:55;99658.03;;;10.80;51.89
15604;BME280;7902;49.042;9.092;2023-04-10T06:19:21;99661.13;;;10.87;51.53
15604;BME280;7902;49.042;9.092;2023-04-10T06:21:47;99663.53;;;10.90;50.92
15604;BME280;7902;49.042;9.092;2023-04-10T06:24:13;99659.44;;;10.86;51.54
15604;BME280;7902;49.042;9.092;2023-04-10T06:26:40;99659.34;;;10.87;51.31
15604;BME280;7902;49.042;9.092;2023-04-10T06:29:06;99655.56;;;10.91;50.63
15604;BME280;7902;49.042;9.092;2023-04-10T06:31:32;99660.63;;;10.94;50.85
15604;BME280;7902;49.042;9.092;2023-04-10T06:33:58;99665.34;;;10.89;51.04
15604;BME280;7902;49.042;9.092;2023-04-10T06:36:24;99660.63;;;10.94;51.23
15604;BME280;7902;49.042;9.092;2023-04-10T06:38:51;99660.31;;;10.99;50.84
15604;BME280;7902;49.042;9.092;2023-04-10T06:41:17;99656.66;;;11.02;51.29
15604;BME280;7902;49.042;9.092;2023-04-10T06:43:43;99656.78;;;11.13;50.51
15604;BME280;7902;49.042;9.092;2023-04-10T06:46:11;99656.59;;;11.16;50.61
15604;BME280;7902;49.042;9.092;2023-04-10T06:48:37;99654.72;;;11.30;50.69
15604;BME280;7902;49.042;9.092;2023-04-10T06:51:03;99654.09;;;11.27;50.68
15604;BME280;7902;49.042;9.092;2023-04-10T06:53:29;99648.03;;;11.39;50.98
15604;BME280;7902;49.042;9.092;2023-04-10T06:55:55;99643.81;;;11.49;50.42
15604;BME280;7902;49.042;9.092;2023-04-10T06:58:21;99642.16;;;11.48;50.48
15604;BME280;7902;49.042;9.092;2023-04-10T07:00:49;99640.25;;;11.50;49.79
15604;BME280;7902;49.042;9.092;2023-04-10T07:03:14;99639.09;;;11.67;49.85
15604;BME280;7902;49.042;9.092;2023-04-10T07:05:40;99634.16;;;11.62;50.01
15604;BME280;7902;49.042;9.092;2023-04-10T07:08:06;99632.31;;;11.77;49.29
15604;BME280;7902;49.042;9.092;2023-04-10T07:10:33;99639.88;;;11.81;50.02
15604;BME280;7902;49.042;9.092;2023-04-10T07:13:00;99641.97;;;11.89;49.25
15604;BME280;7902;49.042;9.092;2023-04-10T07:15:26;99631.66;;;11.99;49.97
15604;BME280;7902;49.042;9.092;2023-04-10T07:17:52;99631.94;;;12.07;48.99
15604;BME280;7902;49.042;9.092;2023-04-10T07:20:18;99637.97;;;12.09;48.88
15604;BME280;7902;49.042;9.092;2023-04-10T07:22:44;99632.47;;;12.12;48.50
15604;BME280;7902;49.042;9.092;2023-04-10T07:25:10;99638.34;;;12.15;48.88
15604;BME280;7902;49.042;9.092;2023-04-10T07:27:35;99636.47;;;12.17;48.76
15604;BME280;7902;49.042;9.092;2023-04-10T07:30:01;99635.38;;;12.20;49.15
15604;BME280;7902;49.042;9.092;2023-04-10T07:32:27;99631.16;;;12.30;48.68
15604;BME280;7902;49.042;9.092;2023-04-10T07:34:53;99631.41;;;12.27;49.18
15604;BME280;7902;49.042;9.092;2023-04-10T07:37:19;99630.00;;;12.34;49.02
15604;BME280;7902;49.042;9.092;2023-04-10T07:39:45;99637.59;;;12.26;49.36
15604;BME280;7902;49.042;9.092;2023-04-10T07:42:11;99631.16;;;12.30;49.15
15604;BME280;7902;49.042;9.092;2023-04-10T07:44:37;99626.31;;;12.37;48.93
15604;BME280;7902;49.042;9.092;2023-04-10T07:47:03;99626.94;;;12.40;48.82
15604;BME280;7902;49.042;9.092;2023-04-10T07:49:29;99624.81;;;12.45;48.30
15604;BME280;7902;49.042;9.092;2023-04-10T07:51:55;99632.44;;;12.37;48.93
15604;BME280;7902;49.042;9.092;2023-04-10T07:54:21;99621.22;;;12.46;48.59
15604;BME280;7902;49.042;9.092;2023-04-10T07:56:47;99628.72;;;12.40;49.47
15604;BME280;7902;49.042;9.092;2023-04-10T07:59:13;99629.84;;;12.48;48.83
15604;BME280;7902;49.042;9.092;2023-04-10T08:01:39;99627.63;;;12.55;48.28
15604;BME280;7902;49.042;9.092;2023-04-10T08:04:05;99621.44;;;12.67;48.43
15604;BME280;7902;49.042;9.092;2023-04-10T08:06:31;99620.06;;;12.50;48.44
15604;BME280;7902;49.042;9.092;2023-04-10T08:08:57;99622.28;;;12.67;48.42
15604;BME280;7902;49.042;9.092;2023-04-10T08:13:57;99614.19;;;12.70;48.28
15604;BME280;7902;49.042;9.092;2023-04-10T08:16:24;99621.75;;;12.75;48.10
15604;BME280;7902;49.042;9.092;2023-04-10T08:18:54;99608.06;;;12.70;48.59
15604;BME280;7902;49.042;9.092;2023-04-10T08:21:25;99615.06;;;12.82;48.17
15604;BME280;7902;49.042;9.092;2023-04-10T08:23:55;99614.53;;;12.90;48.26
15604;BME280;7902;49.042;9.092;2023-04-10T08:26:22;99605.28;;;12.84;48.09
15604;BME280;7902;49.042;9.092;2023-04-10T08:28:49;99609.84;;;12.93;47.87
15604;BME280;7902;49.042;9.092;2023-04-10T08:31:20;99604.25;;;12.98;47.89
15604;BME280;7902;49.042;9.092;2023-04-10T08:33:46;99608.06;;;12.94;48.43
15604;BME280;7902;49.042;9.092;2023-04-10T08:36:12;99600.66;;;12.99;48.18
15604;BME280;7902;49.042;9.092;2023-04-10T08:38:42;99598.38;;;13.05;48.25
15604;BME280;7902;49.042;9.092;2023-04-10T08:41:10;99600.91;;;13.07;48.05
15604;BME280;7902;49.042;9.092;2023-04-10T08:43:37;99601.53;;;13.10;48.00
15604;BME280;7902;49.042;9.092;2023-04-10T08:46:03;99595.22;;;13.13;48.15
15604;BME280;7902;49.042;9.092;2023-04-10T08:48:46;99590.31;;;13.19;47.93
15604;BME280;7902;49.042;9.092;2023-04-10T08:51:16;99594.50;;;13.11;48.01
15604;BME280;7902;49.042;9.092;2023-04-10T08:53:44;99598.81;;;13.12;47.80
15604;BME280;7902;49.042;9.092;2023-04-10T08:56:12;99597.38;;;13.19;47.27
15604;BME280;7902;49.042;9.092;2023-04-10T08:58:41;99595.25;;;13.24;47.55
15604;BME280;7902;49.042;9.092;2023-04-10T09:01:08;99596.09;;;13.25;47.44
15604;BME280;7902;49.042;9.092;2023-04-10T09:03:36;99593.59;;;13.34;46.96
15604;BME280;7902;49.042;9.092;2023-04-10T09:06:03;99593.00;;;13.31;47.56
15604;BME280;7902;49.042;9.092;2023-04-10T09:08:30;99588.44;;;13.33;47.69
15604;BME280;7902;49.042;9.092;2023-04-10T09:10:56;99587.63;;;13.43;46.95
15604;BME280;7902;49.042;9.092;2023-04-10T09:13:39;99583.00;;;13.23;47.86
15604;BME280;7902;49.042;9.092;2023-04-10T09:16:06;99584.75;;;13.46;47.54
15604;BME280;7902;49.042;9.092;2023-04-10T09:18:40;99576.34;;;13.52;46.85
15604;BME280;7902;49.042;9.092;2023-04-10T09:21:11;99574.81;;;13.50;47.65
15604;BME280;7902;49.042;9.092;2023-04-10T09:23:37;99569.41;;;13.51;47.11
15604;BME280;7902;49.042;9.092;2023-04-10T09:26:23;99556.69;;;13.56;46.75
15604;BME280;7902;49.042;9.092;2023-04-10T09:29:03;99554.69;;;13.60;47.36
15604;BME280;7902;49.042;9.092;2023-04-10T09:34:18;99546.28;;;13.55;47.61
15604;BME280;7902;49.042;9.092;2023-04-10T09:36:58;99548.66;;;13.58;47.28
15604;BME280;7902;49.042;9.092;2023-04-10T09:39:37;99534.75;;;13.78;46.44
15604;BME280;7902;49.042;9.092;2023-04-10T09:42:08;99524.78;;;13.71;47.23
15604;BME280;7902;49.042;9.092;2023-04-10T09:44:36;99530.66;;;13.85;46.37
15604;BME280;7902;49.042;9.092;2023-04-10T09:47:20;99529.47;;;13.78;46.56
15604;BME280;7902;49.042;9.092;2023-04-10T09:49:48;99530.44;;;13.88;46.96
15604;BME280;7902;49.042;9.092;2023-04-10T09:52:27;99517.94;;;13.90;47.20
15604;BME280;7902;49.042;9.092;2023-04-10T09:54:55;99510.84;;;13.91;46.76
15604;BME280;7902;49.042;9.092;2023-04-10T09:57:22;99506.31;;;13.93;46.56
15604;BME280;7902;49.042;9.092;2023-04-10T09:59:50;99502.47;;;13.97;46.03
15604;BME280;7902;49.042;9.092;2023-04-10T10:02:18;99501.94;;;14.14;45.50
15604;BME280;7902;49.042;9.092;2023-04-10T10:04:46;99499.78;;;14.08;46.38
15604;BME280;7902;49.042;9.092;2023-04-10T10:07:17;99503.16;;;14.10;45.44
15604;BME280;7902;49.042;9.092;2023-04-10T10:09:44;99497.13;;;14.19;45.69
15604;BME280;7902;49.042;9.092;2023-04-10T10:12:11;99489.03;;;14.32;45.44
15604;BME280;7902;49.042;9.092;2023-04-10T10:14:45;99486.91;;;14.26;46.29
15604;BME280;7902;49.042;9.092;2023-04-10T10:17:17;99481.94;;;14.32;46.58
15604;BME280;7902;49.042;9.092;2023-04-10T10:20:10;99479.56;;;14.40;45.30
15604;BME280;7902;49.042;9.092;2023-04-10T10:22:36;99470.91;;;14.38;46.13
15604;BME280;7902;49.042;9.092;2023-04-10T10:25:03;99462.50;;;14.33;46.19
15604;BME280;7902;49.042;9.092;2023-04-10T10:27:36;99460.34;;;14.38;46.17
15604;BME280;7902;49.042;9.092;2023-04-10T10:30:03;99456.25;;;14.34;45.88
15604;BME280;7902;49.042;9.092;2023-04-10T10:32:30;99452.31;;;14.40;45.84
15604;BME280;7902;49.042;9.092;2023-04-10T10:34:57;99455.88;;;14.50;45.47
15604;BME280;7902;49.042;9.092;2023-04-10T10:37:23;99438.25;;;14.60;45.30
15604;BME280;7902;49.042;9.092;2023-04-10T10:45:08;99428.94;;;14.77;45.45
15604;BME280;7902;49.042;9.092;2023-04-10T10:47:49;99421.63;;;14.69;46.02
15604;BME280;7902;49.042;9.092;2023-04-10T10:50:15;99426.47;;;14.85;44.24
15604;BME280;7902;49.042;9.092;2023-04-10T10:52:42;99417.28;;;14.89;44.40
15604;BME280;7902;49.042;9.092;2023-04-10T10:57:48;99420.03;;;14.78;44.76
15604;BME280;7902;49.042;9.092;2023-04-10T11:00:17;99423.16;;;14.92;44.39
15604;BME280;7902;49.042;9.092;2023-04-10T11:02:43;99425.09;;;14.90;45.64
15604;BME280;7902;49.042;9.092;2023-04-10T11:05:09;99415.03;;;14.84;45.42
15604;BME280;7902;49.042;9.092;2023-04-10T11:10:59;99415.91;;;15.95;41.60
15604;BME280;7902;49.042;9.092;2023-04-10T11:13:26;99413.00;;;16.27;40.49
15604;BME280;7902;49.042;9.092;2023-04-10T11:15:53;99401.84;;;16.52;40.65
15604;BME280;7902;49.042;9.092;2023-04-10T11:21:21;99405.16;;;16.83;38.64
15604;BME280;7902;49.042;9.092;2023-04-10T11:29:03;99392.38;;;17.06;37.91
15604;BME280;7902;49.042;9.092;2023-04-10T11:31:31;99397.66;;;17.16;38.47
15604;BME280;7902;49.042;9.092;2023-04-10T11:34:07;99386.84;;;17.27;38.54
15604;BME280;7902;49.042;9.092;2023-04-10T11:36:40;99385.88;;;17.28;38.16
15604;BME280;7902;49.042;9.092;2023-04-10T11:39:09;99384.00;;;17.38;37.60
15604;BME280;7902;49.042;9.092;2023-04-10T11:41:39;99385.09;;;17.45;38.45
15604;BME280;7902;49.042;9.092;2023-04-10T11:44:08;99381.53;;;17.64;36.38
15604;BME280;7902;49.042;9.092;2023-04-10T11:46:36;99379.66;;;17.74;37.11
15604;BME280;7902;49.042;9.092;2023-04-10T11:49:03;99375.19;;;17.74;36.97
15604;BME280;7902;49.042;9.092;2023-04-10T11:51:30;99367.53;;;17.89;37.27
15604;BME280;7902;49.042;9.092;2023-04-10T11:54:14;99356.13;;;17.96;36.37
15604;BME280;7902;49.042;9.092;2023-04-10T11:56:54;99357.03;;;18.05;36.45
15604;BME280;7902;49.042;9.092;2023-04-10T11:59:21;99344.38;;;18.17;37.00
15604;BME280;7902;49.042;9.092;2023-04-10T12:01:49;99339.22;;;18.41;35.38
15604;BME280;7902;49.042;9.092;2023-04-10T12:04:20;99321.66;;;18.48;35.16
15604;BME280;7902;49.042;9.092;2023-04-10T12:06:50;99318.88;;;18.50;35.22
15604;BME280;7902;49.042;9.092;2023-04-10T12:09:18;99322.66;;;18.47;34.89
15604;BME280;7902;49.042;9.092;2023-04-10T12:11:55;99318.13;;;18.65;33.80
15604;BME280;7902;49.042;9.092;2023-04-10T12:14:29;99320.69;;;18.75;33.93
15604;BME280;7902;49.042;9.092;2023-04-10T12:16:57;99313.25;;;18.78;34.23
15604;BME280;7902;49.042;9.092;2023-04-10T12:19:23;99315.59;;;18.81;34.28
15604;BME280;7902;49.042;9.092;2023-04-10T12:21:49;99315.47;;;18.91;34.08
15604;BME280;7902;49.042;9.092;2023-04-10T12:24:44;99308.63;;;18.89;34.18
15604;BME280;7902;49.042;9.092;2023-04-10T12:27:18;99294.28;;;19.15;33.21
15604;BME280;7902;49.042;9.092;2023-04-10T12:29:46;99301.75;;;19.12;33.12
15604;BME280;7902;49.042;9.092;2023-04-10T12:32:12;99294.13;;;19.17;32.51
15604;BME280;7902;49.042;9.092;2023-04-10T12:34:38;99288.75;;;19.09;34.01
15604;BME280;7902;49.042;9.092;2023-04-10T12:37:05;99288.13;;;19.15;32.75
15604;BME280;7902;49.042;9.092;2023-04-10T12:39:31;99285.81;;;19.20;31.94
15604;BME280;7902;49.042;9.092;2023-04-10T12:42:17;99284.63;;;19.14;32.37
15604;BME280;7902;49.042;9.092;2023-04-10T12:47:17;99274.25;;;19.45;32.75
15604;BME280;7902;49.042;9.092;2023-04-10T12:52:31;99273.38;;;19.28;32.37
15604;BME280;7902;49.042;9.092;2023-04-10T12:55:13;99269.88;;;19.28;32.53
15604;BME280;7902;49.042;9.092;2023-04-10T12:57:40;99254.56;;;19.30;31.82
15604;BME280;7902;49.042;9.092;2023-04-10T13:00:08;99247.25;;;19.32;31.04
15604;BME280;7902;49.042;9.092;2023-04-10T13:02:35;99254.56;;;19.30;31.60
15604;BME280;7902;49.042;9.092;2023-04-10T13:05:03;99250.88;;;19.23;31.43
15604;BME280;7902;49.042;9.092;2023-04-10T13:07:29;99234.91;;;19.31;31.17
15604;BME280;7902;49.042;9.092;2023-04-10T13:09:55;99247.25;;;19.32;30.84
15604;BME280;7902;49.042;9.092;2023-04-10T13:12:21;99245.59;;;19.39;31.55
15604;BME280;7902;49.042;9.092;2023-04-10T13:14:47;99232.94;;;19.41;30.81
15604;BME280;7902;49.042;9.092;2023-04-10T13:17:13;99232.44;;;19.38;30.74
15604;BME280;7902;49.042;9.092;2023-04-10T13:19:39;99232.28;;;19.39;30.23
15604;BME280;7902;49.042;9.092;2023-04-10T13:22:05;99229.00;;;19.53;30.89
15604;BME280;7902;49.042;9.092;2023-04-10T13:24:31;99225.53;;;19.77;31.34
15604;BME280;7902;49.042;9.092;2023-04-10T13:26:57;99230.69;;;19.62;30.50
15604;BME280;7902;49.042;9.092;2023-04-10T13:29:23;99226.34;;;19.78;31.14
15604;BME280;7902;49.042;9.092;2023-04-10T13:31:49;99229.34;;;19.91;30.24
15604;BME280;7902;49.042;9.092;2023-04-10T13:34:15;99215.38;;;19.73;30.95
15604;BME280;7902;49.042;9.092;2023-04-10T13:36:41;99220.03;;;19.87;30.10
15604;BME280;7902;49.042;9.092;2023-04-10T13:39:07;99210.03;;;19.81;29.39
15604;BME280;7902;49.042;9.092;2023-04-10T13:41:33;99196.53;;;19.98;29.52
15604;BME280;7902;49.042;9.092;2023-04-10T13:43:59;99190.22;;;19.91;31.07
15604;BME280;7902;49.042;9.092;2023-04-10T13:46:25;99194.34;;;20.02;28.83
15604;BME280;7902;49.042;9.092;2023-04-10T13:48:51;99187.69;;;20.14;29.13
15604;BME280;7902;49.042;9.092;2023-04-10T13:51:17;99187.88;;;20.04;30.31
15604;BME280;7902;49.042;9.092;2023-04-10T13:53:43;99176.53;;;20.02;29.37
15604;BME280;7902;49.042;9.092;2023-04-10T13:56:08;99175.50;;;20.11;28.96